sensor_id;sensor_type;location;lat;lon;timestamp;P1;durP1;ratioP1;P2;durP2;ratioP2
29352;SDS011;16344;50.364;8.944;2023-04-26T00:00:16;9.57;;;3.42;;
29352;SDS011;16344;50.364;8.944;2023-04-26T00:02:41;10.20;;;2.65;;
29352;SDS011;16344;50.364;8.944;2023-04-26T00:05:07;10.73;;;4.45;;
29352;SDS011;16344;50.364;8.944;2023-04-26T00:07:33;10.80;;;3.58;;
29352;SDS011;16344;50.364;8.944;2023-04-26T00:09:59;17.27;;;3.60;;
29352;SDS011;16344;50.364;8.944;2023-04-26T00:12:25;14.80;;;3.33;;
29352;SDS011;16344;50.364;8.944;2023-04-26T00:14:50;10.55;;;3.05;;
29352;SDS011;16344;50.364;8.944;2023-04-26T00:17:16;15.40;;;4.00;;
29352;SDS011;16344;50.364;8.944;2023-04-26T00:19:42;14.93;;;3.53;;
29352;SDS011;16344;50.364;8.944;2023-04-26T00:22:07;12.55;;;3.40;;
29352;SDS011;16344;50.364;8.944;2023-04-26T00:24:33;11.43;;;3.30;;
29352;SDS011;16344;50.364;8.944;2023-04-26T00:26:59;8.50;;;3.03;;
29352;SDS011;16344;50.364;8.944;2023-04-26T00:29:25;14.35;;;3.15;;
29352;SDS011;16344;50.364;8.944;2023-04-26T00:31:51;7.25;;;2.92;;
29352;SDS011;16344;50.364;8.944;2023-04-26T00:34:16;11.07;;;3.30;;
29352;SDS011;16344;50.364;8.944;2023-04-26T00:36:42;15.55;;;3.25;;
29352;SDS011;16344;50.364;8.944;2023-04-26T00:39:07;8.93;;;3.28;;
29352;SDS011;16344;50.364;8.944;2023-04-26T00:41:34;15.05;;;3.72;;
29352;SDS011;16344;50.364;8.944;2023-04-26T00:43:59;13.85;;;3.08;;
29352;SDS011;16344;50.364;8.944;2023-04-26T00:46:25;8.40;;;2.88;;
29352;SDS011;16344;50.364;8.944;2023-04-26T00:48:52;9.25;;;3.35;;
29352;SDS011;16344;50.364;8.944;2023-04-26T00:51:18;11.00;;;3.55;;
29352;SDS011;16344;50.364;8.944;2023-04-26T00:53:44;14.60;;;3.38;;
29352;SDS011;16344;50.364;8.944;2023-04-26T00:56:10;9.52;;;2.95;;
29352;SDS011;16344;50.364;8.944;2023-04-26T00:58:36;19.95;;;3.53;;
29352;SDS011;16344;50.364;8.944;2023-04-26T01:01:03;8.20;;;3.08;;
29352;SDS011;16344;50.364;8.944;2023-04-26T01:03:28;14.13;;;3.45;;
29352;SDS011;16344;50.364;8.944;2023-04-26T01:05:54;10.05;;;3.05;;
29352;SDS011;16344;50.364;8.944;2023-04-26T01:08:22;14.07;;;3.80;;
29352;SDS011;16344;50.364;8.944;2023-04-26T01:10:48;14.50;;;4.20;;
29352;SDS011;16344;50.364;8.944;2023-04-26T01:13:14;11.45;;;3.20;;
29352;SDS011;16344;50.364;8.944;2023-04-26T01:15:44;13.25;;;3.33;;
29352;SDS011;16344;50.364;8.944;2023-04-26T01:18:11;9.85;;;3.72;;
29352;SDS011;16344;50.364;8.944;2023-04-26T01:20:38;10.70;;;3.90;;
29352;SDS011;16344;50.364;8.944;2023-04-26T01:23:04;9.13;;;3.30;;
29352;SDS011;16344;50.364;8.944;2023-04-26T01:25:30;6.80;;;2.90;;
29352;SDS011;16344;50.364;8.944;2023-04-26T01:27:56;20.33;;;3.50;;
29352;SDS011;16344;50.364;8.944;2023-04-26T01:30:23;8.15;;;3.05;;
29352;SDS011;16344;50.364;8.944;2023-04-26T01:32:49;7.63;;;3.30;;
29352;SDS011;16344;50.364;8.944;2023-04-26T01:35:16;11.57;;;3.35;;
29352;SDS011;16344;50.364;8.944;2023-04-26T01:37:42;6.88;;;3.25;;
29352;SDS011;16344;50.364;8.944;2023-04-26T01:40:08;8.25;;;3.13;;
29352;SDS011;16344;50.364;8.944;2023-04-26T01:42:35;14.13;;;3.40;;
29352;SDS011;16344;50.364;8.944;2023-04-26T01:45:03;13.55;;;4.75;;
29352;SDS011;16344;50.364;8.944;2023-04-26T01:47:33;12.43;;;4.35;;
29352;SDS011;16344;50.364;8.944;2023-04-26T01:50:00;9.52;;;3.63;;
29352;SDS011;16344;50.364;8.944;2023-04-26T01:52:26;15.88;;;4.07;;
29352;SDS011;16344;50.364;8.944;2023-04-26T01:54:52;12.57;;;3.85;;
29352;SDS011;16344;50.364;8.944;2023-04-26T01:57:18;12.07;;;3.47;;
29352;SDS011;16344;50.364;8.944;2023-04-26T01:59:43;9.52;;;3.63;;
29352;SDS011;16344;50.364;8.944;2023-04-26T02:02:10;23.48;;;4.35;;
29352;SDS011;16344;50.364;8.944;2023-04-26T02:04:36;11.05;;;3.72;;
29352;SDS011;16344;50.364;8.944;2023-04-26T02:07:02;21.73;;;4.78;;
29352;SDS011;16344;50.364;8.944;2023-04-26T02:09:29;18.90;;;4.20;;
29352;SDS011;16344;50.364;8.944;2023-04-26T02:11:54;12.35;;;3.55;;
29352;SDS011;16344;50.364;8.944;2023-04-26T02:14:23;13.10;;;3.50;;
29352;SDS011;16344;50.364;8.944;2023-04-26T02:16:50;15.85;;;3.65;;
29352;SDS011;16344;50.364;8.944;2023-04-26T02:19:16;9.23;;;3.75;;
29352;SDS011;16344;50.364;8.944;2023-04-26T02:22:16;23.65;;;3.92;;
29352;SDS011;16344;50.364;8.944;2023-04-26T02:24:35;11.30;;;3.60;;
29352;SDS011;16344;50.364;8.944;2023-04-26T02:27:01;13.25;;;3.53;;
29352;SDS011;16344;50.364;8.944;2023-04-26T02:29:29;13.32;;;4.07;;
29352;SDS011;16344;50.364;8.944;2023-04-26T02:31:54;18.85;;;4.00;;
29352;SDS011;16344;50.364;8.944;2023-04-26T02:34:21;14.57;;;4.45;;
29352;SDS011;16344;50.364;8.944;2023-04-26T02:36:46;8.15;;;3.45;;
29352;SDS011;16344;50.364;8.944;2023-04-26T02:39:12;17.45;;;4.13;;
29352;SDS011;16344;50.364;8.944;2023-04-26T02:41:39;11.27;;;3.38;;
29352;SDS011;16344;50.364;8.944;2023-04-26T02:44:04;14.73;;;3.38;;
29352;SDS011;16344;50.364;8.944;2023-04-26T02:46:30;16.15;;;3.65;;
29352;SDS011;16344;50.364;8.944;2023-04-26T02:48:55;14.70;;;4.00;;
29352;SDS011;16344;50.364;8.944;2023-04-26T02:51:21;13.35;;;4.38;;
29352;SDS011;16344;50.364;8.944;2023-04-26T02:53:47;9.32;;;3.55;;
29352;SDS011;16344;50.364;8.944;2023-04-26T02:56:12;16.55;;;3.92;;
29352;SDS011;16344;50.364;8.944;2023-04-26T02:58:39;16.23;;;4.32;;
29352;SDS011;16344;50.364;8.944;2023-04-26T03:01:05;9.85;;;3.92;;
29352;SDS011;16344;50.364;8.944;2023-04-26T03:03:31;7.35;;;3.55;;
29352;SDS011;16344;50.364;8.944;2023-04-26T03:05:57;8.30;;;3.55;;
29352;SDS011;16344;50.364;8.944;2023-04-26T03:08:23;16.92;;;4.68;;
29352;SDS011;16344;50.364;8.944;2023-04-26T03:10:49;14.48;;;4.07;;
29352;SDS011;16344;50.364;8.944;2023-04-26T03:13:15;7.72;;;4.03;;
29352;SDS011;16344;50.364;8.944;2023-04-26T03:15:43;10.57;;;4.32;;
29352;SDS011;16344;50.364;8.944;2023-04-26T03:18:10;17.65;;;4.07;;
29352;SDS011;16344;50.364;8.944;2023-04-26T03:20:35;20.50;;;4.68;;
29352;SDS011;16344;50.364;8.944;2023-04-26T03:23:01;11.88;;;4.60;;
29352;SDS011;16344;50.364;8.944;2023-04-26T03:25:27;11.20;;;4.95;;
29352;SDS011;16344;50.364;8.944;2023-04-26T03:27:53;11.57;;;4.78;;
29352;SDS011;16344;50.364;8.944;2023-04-26T03:30:20;12.85;;;4.55;;
29352;SDS011;16344;50.364;8.944;2023-04-26T03:32:46;9.13;;;4.55;;
29352;SDS011;16344;50.364;8.944;2023-04-26T03:35:12;14.60;;;4.93;;
29352;SDS011;16344;50.364;8.944;2023-04-26T03:37:37;13.40;;;5.18;;
29352;SDS011;16344;50.364;8.944;2023-04-26T03:40:05;14.32;;;4.47;;
29352;SDS011;16344;50.364;8.944;2023-04-26T03:42:32;11.10;;;4.97;;
29352;SDS011;16344;50.364;8.944;2023-04-26T03:44:58;15.30;;;4.88;;
29352;SDS011;16344;50.364;8.944;2023-04-26T03:47:24;25.52;;;4.93;;
29352;SDS011;16344;50.364;8.944;2023-04-26T03:49:49;26.65;;;6.10;;
29352;SDS011;16344;50.364;8.944;2023-04-26T03:52:15;14.90;;;4.80;;
29352;SDS011;16344;50.364;8.944;2023-04-26T03:54:41;16.80;;;4.70;;
29352;SDS011;16344;50.364;8.944;2023-04-26T03:57:06;21.13;;;4.95;;
29352;SDS011;16344;50.364;8.944;2023-04-26T03:59:32;8.20;;;4.07;;
29352;SDS011;16344;50.364;8.944;2023-04-26T04:01:57;16.40;;;5.20;;
29352;SDS011;16344;50.364;8.944;2023-04-26T04:04:23;17.08;;;5.03;;
29352;SDS011;16344;50.364;8.944;2023-04-26T04:06:48;17.05;;;4.78;;
29352;SDS011;16344;50.364;8.944;2023-04-26T04:09:14;15.98;;;5.13;;
29352;SDS011;16344;50.364;8.944;2023-04-26T04:11:40;13.27;;;5.05;;
29352;SDS011;16344;50.364;8.944;2023-04-26T04:14:09;21.33;;;5.82;;
29352;SDS011;16344;50.364;8.944;2023-04-26T04:16:35;19.10;;;5.60;;
29352;SDS011;16344;50.364;8.944;2023-04-26T04:19:03;12.55;;;4.57;;
29352;SDS011;16344;50.364;8.944;2023-04-26T04:21:29;11.57;;;4.80;;
29352;SDS011;16344;50.364;8.944;2023-04-26T04:23:56;16.00;;;5.55;;
29352;SDS011;16344;50.364;8.944;2023-04-26T04:26:22;15.57;;;4.97;;
29352;SDS011;16344;50.364;8.944;2023-04-26T04:28:47;17.60;;;5.10;;
29352;SDS011;16344;50.364;8.944;2023-04-26T04:31:13;9.20;;;4.18;;
29352;SDS011;16344;50.364;8.944;2023-04-26T04:33:39;17.15;;;5.30;;
29352;SDS011;16344;50.364;8.944;2023-04-26T04:36:05;15.00;;;5.05;;
29352;SDS011;16344;50.364;8.944;2023-04-26T04:38:33;18.05;;;4.07;;
29352;SDS011;16344;50.364;8.944;2023-04-26T04:41:00;9.77;;;4.05;;
29352;SDS011;16344;50.364;8.944;2023-04-26T04:43:26;9.75;;;4.22;;
29352;SDS011;16344;50.364;8.944;2023-04-26T04:45:51;11.70;;;4.07;;
29352;SDS011;16344;50.364;8.944;2023-04-26T04:48:17;8.93;;;3.67;;
29352;SDS011;16344;50.364;8.944;2023-04-26T04:50:45;10.70;;;3.65;;
29352;SDS011;16344;50.364;8.944;2023-04-26T04:53:11;13.18;;;4.25;;
29352;SDS011;16344;50.364;8.944;2023-04-26T04:55:37;7.43;;;3.22;;
29352;SDS011;16344;50.364;8.944;2023-04-26T04:58:03;10.75;;;2.88;;
29352;SDS011;16344;50.364;8.944;2023-04-26T05:00:29;10.40;;;3.42;;
29352;SDS011;16344;50.364;8.944;2023-04-26T05:02:54;7.47;;;2.38;;
29352;SDS011;16344;50.364;8.944;2023-04-26T05:05:21;15.43;;;3.17;;
29352;SDS011;16344;50.364;8.944;2023-04-26T05:07:47;8.40;;;2.92;;
29352;SDS011;16344;50.364;8.944;2023-04-26T05:10:12;15.00;;;2.65;;
29352;SDS011;16344;50.364;8.944;2023-04-26T05:12:38;14.43;;;2.97;;
29352;SDS011;16344;50.364;8.944;2023-04-26T05:15:04;11.93;;;2.95;;
29352;SDS011;16344;50.364;8.944;2023-04-26T05:17:31;6.38;;;2.75;;
29352;SDS011;16344;50.364;8.944;2023-04-26T05:19:57;6.30;;;2.35;;
29352;SDS011;16344;50.364;8.944;2023-04-26T05:22:23;5.93;;;2.00;;
29352;SDS011;16344;50.364;8.944;2023-04-26T05:24:49;10.52;;;2.58;;
29352;SDS011;16344;50.364;8.944;2023-04-26T05:27:14;9.52;;;2.35;;
29352;SDS011;16344;50.364;8.944;2023-04-26T05:29:40;6.43;;;2.83;;
29352;SDS011;16344;50.364;8.944;2023-04-26T05:32:06;6.85;;;2.92;;
29352;SDS011;16344;50.364;8.944;2023-04-26T05:34:32;8.38;;;2.33;;
29352;SDS011;16344;50.364;8.944;2023-04-26T05:36:57;8.27;;;2.22;;
29352;SDS011;16344;50.364;8.944;2023-04-26T05:39:23;10.50;;;3.20;;
29352;SDS011;16344;50.364;8.944;2023-04-26T05:41:49;14.45;;;2.60;;
29352;SDS011;16344;50.364;8.944;2023-04-26T05:44:15;4.70;;;2.55;;
29352;SDS011;16344;50.364;8.944;2023-04-26T05:46:40;7.90;;;1.98;;
29352;SDS011;16344;50.364;8.944;2023-04-26T05:49:06;5.20;;;1.98;;
29352;SDS011;16344;50.364;8.944;2023-04-26T05:51:32;3.22;;;1.70;;
29352;SDS011;16344;50.364;8.944;2023-04-26T05:53:59;7.82;;;2.08;;
29352;SDS011;16344;50.364;8.944;2023-04-26T05:56:24;6.88;;;2.15;;
29352;SDS011;16344;50.364;8.944;2023-04-26T05:58:50;6.05;;;1.90;;
29352;SDS011;16344;50.364;8.944;2023-04-26T06:01:17;3.55;;;2.08;;
29352;SDS011;16344;50.364;8.944;2023-04-26T06:03:44;8.48;;;2.70;;
29352;SDS011;16344;50.364;8.944;2023-04-26T06:06:10;4.65;;;1.80;;
29352;SDS011;16344;50.364;8.944;2023-04-26T06:08:36;8.65;;;2.90;;
29352;SDS011;16344;50.364;8.944;2023-04-26T06:11:03;9.20;;;3.25;;
29352;SDS011;16344;50.364;8.944;2023-04-26T06:13:29;12.07;;;3.47;;
29352;SDS011;16344;50.364;8.944;2023-04-26T06:15:55;4.63;;;2.25;;
29352;SDS011;16344;50.364;8.944;2023-04-26T06:18:22;10.43;;;2.65;;
29352;SDS011;16344;50.364;8.944;2023-04-26T06:20:49;8.95;;;3.10;;
29352;SDS011;16344;50.364;8.944;2023-04-26T06:23:15;8.55;;;2.80;;
29352;SDS011;16344;50.364;8.944;2023-04-26T06:25:41;9.00;;;2.45;;
29352;SDS011;16344;50.364;8.944;2023-04-26T06:28:10;10.95;;;3.15;;
29352;SDS011;16344;50.364;8.944;2023-04-26T06:30:36;13.07;;;3.10;;
29352;SDS011;16344;50.364;8.944;2023-04-26T06:33:03;8.73;;;2.30;;
29352;SDS011;16344;50.364;8.944;2023-04-26T06:35:29;4.43;;;2.30;;
29352;SDS011;16344;50.364;8.944;2023-04-26T06:37:55;9.32;;;2.17;;
29352;SDS011;16344;50.364;8.944;2023-04-26T06:40:21;11.05;;;2.67;;
29352;SDS011;16344;50.364;8.944;2023-04-26T06:42:46;10.15;;;2.20;;
29352;SDS011;16344;50.364;8.944;2023-04-26T06:45:12;8.43;;;2.45;;
29352;SDS011;16344;50.364;8.944;2023-04-26T06:47:38;7.53;;;2.22;;
29352;SDS011;16344;50.364;8.944;2023-04-26T06:50:03;8.23;;;2.15;;
29352;SDS011;16344;50.364;8.944;2023-04-26T06:52:29;12.10;;;2.97;;
29352;SDS011;16344;50.364;8.944;2023-04-26T06:54:56;7.85;;;2.15;;
29352;SDS011;16344;50.364;8.944;2023-04-26T06:57:25;7.70;;;2.67;;
29352;SDS011;16344;50.364;8.944;2023-04-26T06:59:50;7.85;;;2.60;;
29352;SDS011;16344;50.364;8.944;2023-04-26T07:02:17;9.77;;;2.60;;
29352;SDS011;16344;50.364;8.944;2023-04-26T07:04:42;10.75;;;2.90;;
29352;SDS011;16344;50.364;8.944;2023-04-26T07:07:08;14.20;;;3.53;;
29352;SDS011;16344;50.364;8.944;2023-04-26T07:09:33;9.90;;;2.80;;
29352;SDS011;16344;50.364;8.944;2023-04-26T07:11:59;8.15;;;3.03;;
29352;SDS011;16344;50.364;8.944;2023-04-26T07:14:25;12.90;;;2.80;;
29352;SDS011;16344;50.364;8.944;2023-04-26T07:16:51;14.15;;;2.85;;
29352;SDS011;16344;50.364;8.944;2023-04-26T07:19:16;16.05;;;3.72;;
29352;SDS011;16344;50.364;8.944;2023-04-26T07:21:42;7.97;;;3.05;;
29352;SDS011;16344;50.364;8.944;2023-04-26T07:24:07;15.10;;;3.15;;
29352;SDS011;16344;50.364;8.944;2023-04-26T07:26:33;13.10;;;3.70;;
29352;SDS011;16344;50.364;8.944;2023-04-26T07:29:00;11.35;;;2.72;;
29352;SDS011;16344;50.364;8.944;2023-04-26T07:31:26;23.00;;;3.13;;
29352;SDS011;16344;50.364;8.944;2023-04-26T07:33:51;9.60;;;3.55;;
29352;SDS011;16344;50.364;8.944;2023-04-26T07:36:17;13.98;;;3.20;;
29352;SDS011;16344;50.364;8.944;2023-04-26T07:38:42;18.65;;;2.17;;
29352;SDS011;16344;50.364;8.944;2023-04-26T07:41:08;12.48;;;2.70;;
29352;SDS011;16344;50.364;8.944;2023-04-26T07:43:34;13.43;;;2.50;;
29352;SDS011;16344;50.364;8.944;2023-04-26T07:46:00;8.55;;;2.55;;
29352;SDS011;16344;50.364;8.944;2023-04-26T07:48:26;15.55;;;2.75;;
29352;SDS011;16344;50.364;8.944;2023-04-26T07:50:52;13.13;;;2.53;;
29352;SDS011;16344;50.364;8.944;2023-04-26T07:53:17;13.63;;;2.53;;
29352;SDS011;16344;50.364;8.944;2023-04-26T07:55:43;8.40;;;2.97;;
29352;SDS011;16344;50.364;8.944;2023-04-26T07:58:08;22.92;;;2.75;;
29352;SDS011;16344;50.364;8.944;2023-04-26T08:00:38;19.25;;;2.78;;
29352;SDS011;16344;50.364;8.944;2023-04-26T08:03:04;12.70;;;2.30;;
29352;SDS011;16344;50.364;8.944;2023-04-26T08:05:30;21.33;;;3.00;;
29352;SDS011;16344;50.364;8.944;2023-04-26T08:07:55;14.68;;;3.05;;
29352;SDS011;16344;50.364;8.944;2023-04-26T08:10:21;16.95;;;2.38;;
29352;SDS011;16344;50.364;8.944;2023-04-26T08:12:46;25.20;;;2.83;;
29352;SDS011;16344;50.364;8.944;2023-04-26T08:15:12;18.25;;;2.80;;
29352;SDS011;16344;50.364;8.944;2023-04-26T08:17:38;24.00;;;2.55;;
29352;SDS011;16344;50.364;8.944;2023-04-26T08:20:04;14.68;;;2.42;;
29352;SDS011;16344;50.364;8.944;2023-04-26T08:22:30;14.45;;;2.70;;
29352;SDS011;16344;50.364;8.944;2023-04-26T08:24:55;13.05;;;2.20;;
29352;SDS011;16344;50.364;8.944;2023-04-26T08:27:21;17.85;;;2.78;;
29352;SDS011;16344;50.364;8.944;2023-04-26T08:29:47;9.88;;;1.88;;
29352;SDS011;16344;50.364;8.944;2023-04-26T08:32:12;8.40;;;1.88;;
29352;SDS011;16344;50.364;8.944;2023-04-26T08:34:38;15.15;;;2.80;;
29352;SDS011;16344;50.364;8.944;2023-04-26T08:37:09;17.58;;;2.47;;
29352;SDS011;16344;50.364;8.944;2023-04-26T08:39:35;15.70;;;3.03;;
29352;SDS011;16344;50.364;8.944;2023-04-26T08:42:04;16.15;;;2.78;;
29352;SDS011;16344;50.364;8.944;2023-04-26T08:44:36;21.50;;;2.63;;
29352;SDS011;16344;50.364;8.944;2023-04-26T08:47:06;12.73;;;2.70;;
29352;SDS011;16344;50.364;8.944;2023-04-26T08:49:38;10.30;;;2.33;;
29352;SDS011;16344;50.364;8.944;2023-04-26T08:52:09;9.90;;;2.15;;
29352;SDS011;16344;50.364;8.944;2023-04-26T08:54:36;6.07;;;2.20;;
29352;SDS011;16344;50.364;8.944;2023-04-26T08:57:03;15.95;;;2.75;;
29352;SDS011;16344;50.364;8.944;2023-04-26T08:59:32;20.05;;;2.78;;
29352;SDS011;16344;50.364;8.944;2023-04-26T09:01:59;15.75;;;3.13;;
29352;SDS011;16344;50.364;8.944;2023-04-26T09:04:29;17.52;;;2.63;;
29352;SDS011;16344;50.364;8.944;2023-04-26T09:06:57;19.88;;;2.63;;
29352;SDS011;16344;50.364;8.944;2023-04-26T09:09:24;5.55;;;1.77;;
29352;SDS011;16344;50.364;8.944;2023-04-26T09:11:53;19.10;;;2.25;;
29352;SDS011;16344;50.364;8.944;2023-04-26T09:14:19;13.98;;;2.75;;
29352;SDS011;16344;50.364;8.944;2023-04-26T09:16:44;9.35;;;2.35;;
29352;SDS011;16344;50.364;8.944;2023-04-26T09:19:10;17.95;;;2.83;;
29352;SDS011;16344;50.364;8.944;2023-04-26T09:21:42;14.85;;;2.70;;
29352;SDS011;16344;50.364;8.944;2023-04-26T09:24:09;12.48;;;2.38;;
29352;SDS011;16344;50.364;8.944;2023-04-26T09:26:35;8.48;;;2.30;;
29352;SDS011;16344;50.364;8.944;2023-04-26T09:29:19;16.63;;;3.05;;
29352;SDS011;16344;50.364;8.944;2023-04-26T09:31:45;10.45;;;2.58;;
29352;SDS011;16344;50.364;8.944;2023-04-26T09:34:13;8.18;;;2.10;;
29352;SDS011;16344;50.364;8.944;2023-04-26T09:36:46;12.27;;;2.25;;
29352;SDS011;16344;50.364;8.944;2023-04-26T09:39:31;12.98;;;2.50;;
29352;SDS011;16344;50.364;8.944;2023-04-26T09:41:59;13.77;;;2.70;;
29352;SDS011;16344;50.364;8.944;2023-04-26T09:44:25;8.38;;;1.90;;
29352;SDS011;16344;50.364;8.944;2023-04-26T09:47:05;18.30;;;2.20;;
29352;SDS011;16344;50.364;8.944;2023-04-26T09:49:48;19.50;;;2.70;;
29352;SDS011;16344;50.364;8.944;2023-04-26T09:52:15;10.77;;;2.35;;
29352;SDS011;16344;50.364;8.944;2023-04-26T09:54:43;12.45;;;2.53;;
29352;SDS011;16344;50.364;8.944;2023-04-26T09:57:16;8.40;;;2.28;;
29352;SDS011;16344;50.364;8.944;2023-04-26T09:59:47;18.98;;;3.85;;
29352;SDS011;16344;50.364;8.944;2023-04-26T10:04:43;14.55;;;2.88;;
29352;SDS011;16344;50.364;8.944;2023-04-26T10:07:11;15.50;;;3.00;;
29352;SDS011;16344;50.364;8.944;2023-04-26T10:09:37;16.92;;;2.45;;
29352;SDS011;16344;50.364;8.944;2023-04-26T10:12:03;18.30;;;2.60;;
29352;SDS011;16344;50.364;8.944;2023-04-26T10:14:28;16.42;;;2.33;;
29352;SDS011;16344;50.364;8.944;2023-04-26T10:16:55;7.32;;;2.03;;
29352;SDS011;16344;50.364;8.944;2023-04-26T10:19:22;10.23;;;1.95;;
29352;SDS011;16344;50.364;8.944;2023-04-26T10:21:47;8.80;;;2.47;;
29352;SDS011;16344;50.364;8.944;2023-04-26T10:24:17;19.20;;;3.03;;
29352;SDS011;16344;50.364;8.944;2023-04-26T10:26:46;21.00;;;3.03;;
29352;SDS011;16344;50.364;8.944;2023-04-26T10:29:17;11.60;;;3.08;;
29352;SDS011;16344;50.364;8.944;2023-04-26T10:34:30;12.52;;;2.72;;
29352;SDS011;16344;50.364;8.944;2023-04-26T10:39:40;10.80;;;2.78;;
29352;SDS011;16344;50.364;8.944;2023-04-26T10:42:20;5.90;;;1.95;;
29352;SDS011;16344;50.364;8.944;2023-04-26T10:44:49;16.02;;;2.95;;
29352;SDS011;16344;50.364;8.944;2023-04-26T10:47:20;7.57;;;2.40;;
29352;SDS011;16344;50.364;8.944;2023-04-26T10:50:09;11.13;;;2.92;;
29352;SDS011;16344;50.364;8.944;2023-04-26T10:52:36;7.00;;;2.33;;
29352;SDS011;16344;50.364;8.944;2023-04-26T10:55:40;8.20;;;2.55;;
29352;SDS011;16344;50.364;8.944;2023-04-26T11:03:35;23.15;;;3.22;;
29352;SDS011;16344;50.364;8.944;2023-04-26T11:06:05;13.50;;;2.80;;
29352;SDS011;16344;50.364;8.944;2023-04-26T11:08:33;9.18;;;2.45;;
29352;SDS011;16344;50.364;8.944;2023-04-26T11:13:26;9.65;;;2.15;;
29352;SDS011;16344;50.364;8.944;2023-04-26T11:15:59;11.77;;;2.45;;
29352;SDS011;16344;50.364;8.944;2023-04-26T11:18:29;9.70;;;2.72;;
29352;SDS011;16344;50.364;8.944;2023-04-26T11:20:59;17.13;;;2.38;;
29352;SDS011;16344;50.364;8.944;2023-04-26T11:23:26;10.52;;;3.10;;
29352;SDS011;16344;50.364;8.944;2023-04-26T11:25:56;9.40;;;2.15;;
29352;SDS011;16344;50.364;8.944;2023-04-26T11:28:22;11.82;;;2.35;;
29352;SDS011;16344;50.364;8.944;2023-04-26T11:30:48;7.88;;;2.42;;
29352;SDS011;16344;50.364;8.944;2023-04-26T11:33:15;25.52;;;3.63;;
29352;SDS011;16344;50.364;8.944;2023-04-26T11:35:46;15.60;;;2.30;;
29352;SDS011;16344;50.364;8.944;2023-04-26T11:38:11;7.82;;;2.10;;
29352;SDS011;16344;50.364;8.944;2023-04-26T11:40:37;14.15;;;2.47;;
29352;SDS011;16344;50.364;8.944;2023-04-26T11:43:03;12.93;;;2.25;;
29352;SDS011;16344;50.364;8.944;2023-04-26T11:45:30;7.93;;;2.83;;
29352;SDS011;16344;50.364;8.944;2023-04-26T11:47:57;5.97;;;2.38;;
29352;SDS011;16344;50.364;8.944;2023-04-26T11:50:25;9.75;;;2.33;;
29352;SDS011;16344;50.364;8.944;2023-04-26T11:52:55;6.70;;;2.15;;
29352;SDS011;16344;50.364;8.944;2023-04-26T11:55:30;11.90;;;2.45;;
29352;SDS011;16344;50.364;8.944;2023-04-26T11:57:57;12.10;;;2.25;;
29352;SDS011;16344;50.364;8.944;2023-04-26T12:00:23;8.35;;;2.47;;
29352;SDS011;16344;50.364;8.944;2023-04-26T12:02:50;10.55;;;2.38;;
29352;SDS011;16344;50.364;8.944;2023-04-26T12:05:26;7.38;;;2.25;;
29352;SDS011;16344;50.364;8.944;2023-04-26T12:07:57;11.73;;;2.45;;
29352;SDS011;16344;50.364;8.944;2023-04-26T12:12:51;13.85;;;2.80;;
29352;SDS011;16344;50.364;8.944;2023-04-26T12:15:18;10.95;;;2.65;;
29352;SDS011;16344;50.364;8.944;2023-04-26T12:17:53;14.55;;;2.58;;
29352;SDS011;16344;50.364;8.944;2023-04-26T12:20:33;11.52;;;2.55;;
29352;SDS011;16344;50.364;8.944;2023-04-26T12:25:31;15.07;;;2.35;;
29352;SDS011;16344;50.364;8.944;2023-04-26T12:27:58;9.63;;;2.42;;
29352;SDS011;16344;50.364;8.944;2023-04-26T12:30:25;16.27;;;3.90;;
29352;SDS011;16344;50.364;8.944;2023-04-26T12:32:51;20.25;;;2.63;;
29352;SDS011;16344;50.364;8.944;2023-04-26T12:35:17;13.70;;;3.15;;
29352;SDS011;16344;50.364;8.944;2023-04-26T12:37:43;12.30;;;3.38;;
29352;SDS011;16344;50.364;8.944;2023-04-26T12:40:09;10.07;;;2.20;;
29352;SDS011;16344;50.364;8.944;2023-04-26T12:42:35;18.02;;;3.53;;
29352;SDS011;16344;50.364;8.944;2023-04-26T12:45:01;15.75;;;3.67;;
29352;SDS011;16344;50.364;8.944;2023-04-26T12:47:27;12.32;;;2.88;;
29352;SDS011;16344;50.364;8.944;2023-04-26T12:49:55;7.93;;;2.88;;
29352;SDS011;16344;50.364;8.944;2023-04-26T12:52:20;12.95;;;3.67;;
29352;SDS011;16344;50.364;8.944;2023-04-26T12:54:46;12.85;;;3.35;;
29352;SDS011;16344;50.364;8.944;2023-04-26T12:57:12;13.05;;;2.60;;
29352;SDS011;16344;50.364;8.944;2023-04-26T12:59:38;9.48;;;3.03;;
29352;SDS011;16344;50.364;8.944;2023-04-26T13:02:04;11.68;;;3.28;;
29352;SDS011;16344;50.364;8.944;2023-04-26T13:04:30;9.75;;;2.65;;
29352;SDS011;16344;50.364;8.944;2023-04-26T13:06:56;15.18;;;2.75;;
29352;SDS011;16344;50.364;8.944;2023-04-26T13:09:21;18.48;;;3.05;;
29352;SDS011;16344;50.364;8.944;2023-04-26T13:11:47;13.93;;;2.63;;
29352;SDS011;16344;50.364;8.944;2023-04-26T13:14:12;10.50;;;3.40;;
29352;SDS011;16344;50.364;8.944;2023-04-26T13:16:38;19.27;;;3.20;;
29352;SDS011;16344;50.364;8.944;2023-04-26T13:19:07;19.90;;;3.22;;
29352;SDS011;16344;50.364;8.944;2023-04-26T13:21:34;9.45;;;2.60;;
29352;SDS011;16344;50.364;8.944;2023-04-26T13:24:00;9.20;;;2.58;;
29352;SDS011;16344;50.364;8.944;2023-04-26T13:26:25;11.63;;;2.60;;
29352;SDS011;16344;50.364;8.944;2023-04-26T13:28:51;11.68;;;2.67;;
29352;SDS011;16344;50.364;8.944;2023-04-26T13:31:16;8.00;;;2.47;;
29352;SDS011;16344;50.364;8.944;2023-04-26T13:33:42;12.93;;;3.10;;
29352;SDS011;16344;50.364;8.944;2023-04-26T13:36:08;20.15;;;3.25;;
29352;SDS011;16344;50.364;8.944;2023-04-26T13:38:34;13.93;;;2.80;;
29352;SDS011;16344;50.364;8.944;2023-04-26T13:40:59;9.90;;;2.67;;
29352;SDS011;16344;50.364;8.944;2023-04-26T13:43:26;6.90;;;3.03;;
29352;SDS011;16344;50.364;8.944;2023-04-26T13:45:51;15.40;;;2.50;;
29352;SDS011;16344;50.364;8.944;2023-04-26T13:48:18;16.42;;;2.85;;
29352;SDS011;16344;50.364;8.944;2023-04-26T13:50:43;8.52;;;3.13;;
29352;SDS011;16344;50.364;8.944;2023-04-26T13:53:09;68.60;;;5.75;;
29352;SDS011;16344;50.364;8.944;2023-04-26T13:55:35;15.32;;;4.03;;
29352;SDS011;16344;50.364;8.944;2023-04-26T13:58:00;24.80;;;3.58;;
29352;SDS011;16344;50.364;8.944;2023-04-26T14:00:26;43.90;;;4.05;;
29352;SDS011;16344;50.364;8.944;2023-04-26T14:02:51;75.40;;;5.32;;
29352;SDS011;16344;50.364;8.944;2023-04-26T14:05:18;23.98;;;3.67;;
29352;SDS011;16344;50.364;8.944;2023-04-26T14:07:43;13.95;;;2.40;;
29352;SDS011;16344;50.364;8.944;2023-04-26T14:10:09;8.50;;;2.92;;
29352;SDS011;16344;50.364;8.944;2023-04-26T14:12:36;11.45;;;3.30;;
29352;SDS011;16344;50.364;8.944;2023-04-26T14:15:01;16.80;;;3.42;;
29352;SDS011;16344;50.364;8.944;2023-04-26T14:17:29;11.55;;;3.30;;
29352;SDS011;16344;50.364;8.944;2023-04-26T14:19:56;13.95;;;3.25;;
29352;SDS011;16344;50.364;8.944;2023-04-26T14:22:22;10.23;;;3.35;;
29352;SDS011;16344;50.364;8.944;2023-04-26T14:24:47;14.23;;;3.17;;
29352;SDS011;16344;50.364;8.944;2023-04-26T14:27:13;12.32;;;3.75;;
29352;SDS011;16344;50.364;8.944;2023-04-26T14:29:38;13.98;;;2.97;;
29352;SDS011;16344;50.364;8.944;2023-04-26T14:32:04;11.82;;;3.28;;
29352;SDS011;16344;50.364;8.944;2023-04-26T14:34:30;9.40;;;3.03;;
29352;SDS011;16344;50.364;8.944;2023-04-26T14:36:56;18.23;;;3.50;;
29352;SDS011;16344;50.364;8.944;2023-04-26T14:39:25;23.67;;;3.85;;
29352;SDS011;16344;50.364;8.944;2023-04-26T14:41:51;21.80;;;3.83;;
29352;SDS011;16344;50.364;8.944;2023-04-26T14:44:17;15.32;;;2.90;;
29352;SDS011;16344;50.364;8.944;2023-04-26T14:46:42;16.30;;;4.10;;
29352;SDS011;16344;50.364;8.944;2023-04-26T14:49:08;12.70;;;3.75;;
29352;SDS011;16344;50.364;8.944;2023-04-26T14:51:33;11.43;;;3.17;;
29352;SDS011;16344;50.364;8.944;2023-04-26T14:53:59;13.77;;;3.22;;
29352;SDS011;16344;50.364;8.944;2023-04-26T14:56:24;14.23;;;3.53;;